Time,TemperatureF,DewpointF,PressureIn,WindDirection,WindDirectionDegrees,WindSpeedMPH,WindSpeedGustMPH,Humidity,HourlyPrecipIn,Conditions,Clouds,dailyrainin,SoftwareType,DateUTC
2013-04-17 00:07:00,32.2,30.0,30.42,NNW,346,0.0,-999.0,90,-99.99,,,0.00,weatherlink.com 1.10,2013-04-17 04:07:00,
2013-04-17 00:22:00,32.0,30.0,30.42,NNW,346,1.0,-999.0,91,-99.99,,,0.00,weatherlink.com 1.10,2013-04-17 04:22:00,
2013-04-17 00:37:00,32.1,30.0,30.43,NW,314,0.0,-999.0,92,-99.99,,,0.00,weatherlink.com 1.10,2013-04-17 04:37:00,
2013-04-17 00:52:00,31.6,29.0,30.43,NW,314,1.0,-999.0,91,-99.99,,,0.00,weatherlink.com 1.10,2013-04-17 04:52:00,
2013-04-17 01:07:00,31.0,29.0,30.43,NW,314,0.0,-999.0,92,-99.99,,,0.00,weatherlink.com 1.10,2013-04-17 05:07:00,
2013-04-17 01:22:00,30.5,29.0,30.44,NW,315,0.0,-999.0,92,-99.99,,,0.00,weatherlink.com 1.10,2013-04-17 05:22:00,
2013-04-17 01:37:00,29.7,28.0,30.44,NW,315,0.0,-999.0,92,-99.99,,,0.00,weatherlink.com 1.10,2013-04-17 05:37:00,
2013-04-17 01:52:00,29.4,27.0,30.45,NW,315,0.0,-999.0,92,-99.99,,,0.00,weatherlink.com 1.10,2013-04-17 05:52:00,
2013-04-17 02:07:00,29.7,28.0,30.45,NW,315,0.0,-999.0,93,-99.99,,,0.00,weatherlink.com 1.10,2013-04-17 06:07:00,
2013-04-17 02:22:00,29.3,28.0,30.45,NW,315,0.0,-999.0,93,-99.99,,,0.00,weatherlink.com 1.10,2013-04-17 06:22:00,
2013-04-17 02:37:00,29.4,28.0,30.46,NW,315,0.0,-999.0,93,-99.99,,,0.00,weatherlink.com 1.10,2013-04-17 06:37:00,
2013-04-17 02:52:00,29.3,28.0,30.47,NW,315,0.0,-999.0,93,-99.99,,,0.00,weatherlink.com 1.10,2013-04-17 06:52:00,
2013-04-17 03:07:00,29.2,28.0,30.47,NW,315,0.0,-999.0,93,-99.99,,,0.00,weatherlink.com 1.10,2013-04-17 07:07:00,
2013-04-17 03:22:00,28.8,27.0,30.48,NW,315,0.0,-999.0,93,-99.99,,,0.00,weatherlink.com 1.10,2013-04-17 07:22:00,
2013-04-17 03:37:00,28.5,27.0,30.48,NW,315,0.0,-999.0,94,-99.99,,,0.00,weatherlink.com 1.10,2013-04-17 07:37:00,
2013-04-17 03:52:00,27.9,26.0,30.49,NW,315,0.0,-999.0,93,-99.99,,,0.00,weatherlink.com 1.10,2013-04-17 07:52:00,
2013-04-17 04:07:00,28.4,27.0,30.49,NW,314,0.0,-999.0,94,-99.99,,,0.00,weatherlink.com 1.10,2013-04-17 08:07:00,
2013-04-17 04:22:00,27.8,26.0,30.49,NW,315,0.0,-999.0,94,-99.99,,,0.00,weatherlink.com 1.10,2013-04-17 08:22:00,
2013-04-17 04:37:00,27.0,26.0,30.50,NW,314,0.0,-999.0,94,-99.99,,,0.00,weatherlink.com 1.10,2013-04-17 08:37:00,
2013-04-17 04:53:00,26.8,25.0,30.50,NW,315,1.0,-999.0,94,-99.99,,,0.00,weatherlink.com 1.10,2013-04-17 08:53:00,
2013-04-17 05:08:00,28.3,27.0,30.51,NE,36,1.0,-999.0,94,-99.99,,,0.00,weatherlink.com 1.10,2013-04-17 09:08:00,
2013-04-17 05:23:00,27.6,26.0,30.51,NE,36,0.0,-999.0,94,-99.99,,,0.00,weatherlink.com 1.10,2013-04-17 09:23:00,
2013-04-17 05:38:00,26.8,25.0,30.51,NE,36,0.0,-999.0,94,-99.99,,,0.00,weatherlink.com 1.10,2013-04-17 09:38:00,
2013-04-17 05:53:00,26.9,25.0,30.52,NE,36,0.0,-999.0,94,-99.99,,,0.00,weatherlink.com 1.10,2013-04-17 09:53:00,
2013-04-17 06:08:00,29.0,28.0,30.52,NE,34,5.0,-999.0,94,-99.99,,,0.00,weatherlink.com 1.10,2013-04-17 10:08:00,
2013-04-17 06:23:00,31.1,30.0,30.52,NNE,28,4.0,-999.0,94,-99.99,,,0.00,weatherlink.com 1.10,2013-04-17 10:23:00,
2013-04-17 06:38:00,31.6,29.0,30.52,NE,37,6.0,-999.0,90,-99.99,,,0.00,weatherlink.com 1.10,2013-04-17 10:38:00,
2013-04-17 06:53:00,31.5,28.0,30.53,ENE,66,3.0,-999.0,88,-99.99,,,0.00,weatherlink.com 1.10,2013-04-17 10:53:00,
2013-04-17 07:08:00,30.9,28.0,30.53,ENE,66,0.0,-999.0,88,-99.99,,,0.00,weatherlink.com 1.10,2013-04-17 11:08:00,
2013-04-17 07:23:00,30.8,28.0,30.53,ENE,66,0.0,-999.0,89,-99.99,,,0.00,weatherlink.com 1.10,2013-04-17 11:23:00,
2013-04-17 07:38:00,32.2,29.0,30.54,ENE,66,0.0,-999.0,87,-99.99,,,0.00,weatherlink.com 1.10,2013-04-17 11:38:00,
2013-04-17 07:53:00,32.0,29.0,30.54,ENE,66,0.0,-999.0,88,-99.99,,,0.00,weatherlink.com 1.10,2013-04-17 11:53:00,
2013-04-17 08:08:00,31.9,29.0,30.55,ENE,66,0.0,-999.0,88,-99.99,,,0.00,weatherlink.com 1.10,2013-04-17 12:08:00,
2013-04-17 08:23:00,34.0,31.0,30.55,ENE,66,1.0,-999.0,87,-99.99,,,0.00,weatherlink.com 1.10,2013-04-17 12:23:00,
2013-04-17 08:38:00,34.7,29.0,30.55,ENE,61,6.0,-999.0,81,-99.99,,,0.00,weatherlink.com 1.10,2013-04-17 12:38:00,
2013-04-17 08:53:00,35.4,30.0,30.54,East,99,5.0,-999.0,79,-99.99,,,0.00,weatherlink.com 1.10,2013-04-17 12:53:00,
2013-04-17 09:08:00,36.0,29.0,30.54,NE,56,5.0,-999.0,77,-99.99,,,0.00,weatherlink.com 1.10,2013-04-17 13:08:00,
2013-04-17 09:23:00,36.5,30.0,30.53,ENE,75,5.0,-999.0,76,-99.99,,,0.00,weatherlink.com 1.10,2013-04-17 13:23:00,
2013-04-17 09:38:00,37.0,30.0,30.53,ENE,61,3.0,-999.0,75,-99.99,,,0.00,weatherlink.com 1.10,2013-04-17 13:38:00,
2013-04-17 09:53:00,37.9,30.0,30.53,NE,47,4.0,-999.0,74,-99.99,,,0.00,weatherlink.com 1.10,2013-04-17 13:53:00,
2013-04-17 10:08:00,38.5,31.0,30.53,ENE,57,6.0,-999.0,73,-99.99,,,0.00,weatherlink.com 1.10,2013-04-17 14:08:00,
2013-04-17 10:23:00,39.3,30.0,30.55,SE,141,1.0,-999.0,70,-99.99,,,0.00,weatherlink.com 1.10,2013-04-17 14:23:00,
2013-04-17 10:38:00,39.7,31.0,30.54,ESE,121,3.0,-999.0,71,-99.99,,,0.00,weatherlink.com 1.10,2013-04-17 14:38:00,
2013-04-17 10:53:00,40.0,31.0,30.57,South,171,3.0,-999.0,70,-99.99,,,0.00,weatherlink.com 1.10,2013-04-17 14:53:00,
2013-04-17 11:08:00,40.6,31.0,30.56,South,182,0.0,-999.0,68,-99.99,,,0.00,weatherlink.com 1.10,2013-04-17 15:08:00,
2013-04-17 11:23:00,41.1,32.0,30.55,SE,132,4.0,-999.0,70,-99.99,,,0.00,weatherlink.com 1.10,2013-04-17 15:23:00,
2013-04-17 11:38:00,41.8,32.0,30.56,SSE,156,5.0,-999.0,69,-99.99,,,0.00,weatherlink.com 1.10,2013-04-17 15:38:00,
2013-04-17 11:53:00,41.8,32.0,30.55,South,171,5.0,-999.0,69,-99.99,,,0.00,weatherlink.com 1.10,2013-04-17 15:53:00,
2013-04-17 12:08:00,42.5,33.0,30.55,South,171,10.0,-999.0,70,-99.99,,,0.00,weatherlink.com 1.10,2013-04-17 16:08:00,
2013-04-17 12:23:00,42.7,34.0,30.54,South,169,9.0,-999.0,71,-99.99,,,0.00,weatherlink.com 1.10,2013-04-17 16:23:00,
2013-04-17 12:46:00,43.2,34.0,30.51,South,172,7.0,-999.0,71,-99.99,,,0.00,weatherlink.com 1.10,2013-04-17 16:46:00,
2013-04-17 12:53:00,43.4,33.0,30.50,South,182,7.0,-999.0,67,-99.99,,,0.00,weatherlink.com 1.10,2013-04-17 16:53:00,
2013-04-17 13:09:00,43.7,34.0,30.51,South,170,8.0,-999.0,69,-99.99,,,0.00,weatherlink.com 1.10,2013-04-17 17:09:00,
2013-04-17 13:23:00,43.6,33.0,30.52,SSE,157,12.0,-999.0,67,-99.99,,,0.00,weatherlink.com 1.10,2013-04-17 17:23:00,
2013-04-17 13:39:00,43.8,34.0,30.51,SSE,157,11.0,-999.0,69,-99.99,,,0.00,weatherlink.com 1.10,2013-04-17 17:39:00,
2013-04-17 13:54:00,43.6,33.0,30.50,SE,134,12.0,-999.0,66,-99.99,,,0.00,weatherlink.com 1.10,2013-04-17 17:54:00,
2013-04-17 14:09:00,43.1,33.0,30.49,SE,145,12.0,-999.0,67,-99.99,,,0.00,weatherlink.com 1.10,2013-04-17 18:09:00,
2013-04-17 14:39:00,43.3,34.0,30.49,SSE,153,12.0,-999.0,69,-99.99,,,0.00,weatherlink.com 1.10,2013-04-17 18:39:00,
2013-04-17 14:54:00,43.2,34.0,30.48,ESE,119,14.0,-999.0,70,-99.99,,,0.00,weatherlink.com 1.10,2013-04-17 18:54:00,
2013-04-17 15:24:00,42.7,33.0,30.46,SSE,153,14.0,-999.0,68,-99.99,,,0.00,weatherlink.com 1.10,2013-04-17 19:24:00,
2013-04-17 16:09:00,43.1,33.0,30.45,SE,133,7.0,-999.0,67,-99.99,,,0.00,weatherlink.com 1.10,2013-04-17 20:09:00,
2013-04-17 16:50:00,43.3,33.0,30.43,SSE,157,12.0,-999.0,66,-99.99,,,0.00,weatherlink.com 1.10,2013-04-17 20:50:00,
2013-04-17 17:09:00,43.2,32.0,30.44,SSE,148,10.0,-999.0,66,-99.99,,,0.00,weatherlink.com 1.10,2013-04-17 21:09:00,
2013-04-17 17:24:00,43.3,33.0,30.43,SE,138,12.0,-999.0,66,-99.99,,,0.00,weatherlink.com 1.10,2013-04-17 21:24:00,
2013-04-17 17:58:00,42.4,33.0,30.42,SSE,150,5.0,-999.0,70,-99.99,,,0.00,weatherlink.com 1.10,2013-04-17 21:58:00,
2013-04-17 18:09:00,42.3,32.0,30.42,SSE,151,5.0,-999.0,68,-99.99,,,0.00,weatherlink.com 1.10,2013-04-17 22:09:00,
2013-04-17 18:24:00,42.2,32.0,30.41,SE,136,5.0,-999.0,68,-99.99,,,0.00,weatherlink.com 1.10,2013-04-17 22:24:00,
2013-04-17 18:40:00,42.1,33.0,30.40,SE,140,5.0,-999.0,69,-99.99,,,0.00,weatherlink.com 1.10,2013-04-17 22:40:00,
2013-04-17 18:55:00,42.2,32.0,30.39,SE,139,1.0,-999.0,68,-99.99,,,0.00,weatherlink.com 1.10,2013-04-17 22:55:00,
2013-04-17 19:25:00,41.7,33.0,30.38,SSE,159,3.0,-999.0,72,-99.99,,,0.00,weatherlink.com 1.10,2013-04-17 23:25:00,
2013-04-17 19:40:00,41.0,34.0,30.38,SE,144,2.0,-999.0,76,-99.99,,,0.00,weatherlink.com 1.10,2013-04-17 23:40:00,
2013-04-17 19:55:00,40.7,32.0,30.37,SE,139,5.0,-999.0,72,-99.99,,,0.00,weatherlink.com 1.10,2013-04-17 23:55:00,
2013-04-17 20:10:00,40.4,32.0,30.36,SE,134,4.0,-999.0,71,-99.99,,,0.00,weatherlink.com 1.10,2013-04-18 00:10:00,
2013-04-17 20:25:00,39.8,32.0,30.36,ESE,118,3.0,-999.0,73,-99.99,,,0.00,weatherlink.com 1.10,2013-04-18 00:25:00,
2013-04-17 20:40:00,39.3,32.0,30.35,ESE,118,3.0,-999.0,74,-99.99,,,0.00,weatherlink.com 1.10,2013-04-18 00:40:00,
2013-04-17 20:55:00,38.5,32.0,30.34,ESE,117,0.0,-999.0,76,-99.99,,,0.00,weatherlink.com 1.10,2013-04-18 00:55:00,
2013-04-17 21:10:00,39.0,32.0,30.32,ESE,105,1.0,-999.0,75,-99.99,,,0.00,weatherlink.com 1.10,2013-04-18 01:10:00,
2013-04-17 21:25:00,39.5,32.0,30.32,East,83,2.0,-999.0,73,-99.99,,,0.00,weatherlink.com 1.10,2013-04-18 01:25:00,
2013-04-17 21:55:00,39.3,32.0,30.31,ENE,64,3.0,-999.0,74,-99.99,,,0.00,weatherlink.com 1.10,2013-04-18 01:55:00,
2013-04-17 22:10:00,39.2,32.0,30.29,ENE,67,3.0,-999.0,74,-99.99,,,0.00,weatherlink.com 1.10,2013-04-18 02:10:00,
2013-04-17 22:26:00,39.4,31.0,30.28,East,83,1.0,-999.0,72,-99.99,,,0.00,weatherlink.com 1.10,2013-04-18 02:26:00,
2013-04-17 22:40:00,39.9,31.0,30.28,East,83,3.0,-999.0,70,-99.99,,,0.00,weatherlink.com 1.10,2013-04-18 02:40:00,
2013-04-17 22:55:00,40.4,29.0,30.28,ESE,104,5.0,-999.0,65,-99.99,,,0.00,weatherlink.com 1.10,2013-04-18 02:55:00,
2013-04-17 23:10:00,41.0,29.0,30.29,ESE,109,4.0,-999.0,62,-99.99,,,0.00,weatherlink.com 1.10,2013-04-18 03:10:00,
2013-04-17 23:25:00,40.1,31.0,30.29,ESE,105,0.0,-999.0,70,-99.99,,,0.00,weatherlink.com 1.10,2013-04-18 03:25:00,
2013-04-17 23:40:00,39.9,29.0,30.29,ESE,105,1.0,-999.0,66,-99.99,,,0.00,weatherlink.com 1.10,2013-04-18 03:40:00,
2013-04-17 23:55:00,39.8,30.0,30.28,ESE,105,0.0,-999.0,68,-99.99,,,0.00,weatherlink.com 1.10,2013-04-18 03:55:00,